createdAt,value
2022-08-05T00:01:27.252Z,99.90
2022-08-05T00:04:30.361Z,99.90
2022-08-05T00:07:59.861Z,99.90
2022-08-05T00:10:54.434Z,99.90
2022-08-05T00:13:56.397Z,99.90
2022-08-05T00:16:58.590Z,99.90
2022-08-05T00:20:04.409Z,99.90
2022-08-05T00:23:12.744Z,99.90
2022-08-05T00:26:17.027Z,99.90
2022-08-05T00:29:19.228Z,99.90
2022-08-05T00:32:25.803Z,99.90
2022-08-05T00:35:33.447Z,99.90
2022-08-05T00:38:35.722Z,99.90
2022-08-05T00:41:51.984Z,99.90
2022-08-05T00:44:57.254Z,99.90
2022-08-05T00:48:05.915Z,99.90
2022-08-05T00:51:08.833Z,99.90
2022-08-05T00:54:30.323Z,99.90
2022-08-05T00:57:55.563Z,99.90
2022-08-05T01:00:54.319Z,99.90
2022-08-05T01:03:56.322Z,99.90
2022-08-05T01:06:59.193Z,99.90
2022-08-05T01:10:02.511Z,99.90
2022-08-05T01:13:22.371Z,99.90
2022-08-05T01:16:47.673Z,99.90
2022-08-05T01:20:02.306Z,99.90
2022-08-05T01:23:34.592Z,99.90
2022-08-05T01:26:55.701Z,99.90
2022-08-05T01:30:02.683Z,99.90
2022-08-05T01:33:09.199Z,99.90
2022-08-05T01:36:16.213Z,99.90
2022-08-05T01:39:46.903Z,99.90
2022-08-05T01:42:44.283Z,99.90
2022-08-05T01:45:46.675Z,99.90
2022-08-05T01:49:00.875Z,99.90
2022-08-05T01:52:23.833Z,99.90
2022-08-05T01:55:30.907Z,99.90
2022-08-05T01:58:40.851Z,99.90
2022-08-05T02:01:49.542Z,99.90
2022-08-05T02:04:54.505Z,99.90
2022-08-05T02:08:01.260Z,99.90
2022-08-05T02:11:08.523Z,99.90
2022-08-05T02:14:20.103Z,99.90
2022-08-05T02:18:32.484Z,99.90
2022-08-05T02:21:00.844Z,99.90
2022-08-05T02:24:08.156Z,99.90
2022-08-05T02:27:12.457Z,99.90
2022-08-05T02:30:15.153Z,99.90
2022-08-05T02:33:24.504Z,99.90
2022-08-05T02:36:52.062Z,99.90
2022-08-05T02:39:55.824Z,99.90
2022-08-05T02:42:59.058Z,99.90
2022-08-05T02:46:01.930Z,99.90
2022-08-05T02:49:05.448Z,99.90
2022-08-05T02:52:29.543Z,99.90
2022-08-05T02:55:48.341Z,99.90
2022-08-05T02:58:55.831Z,99.90
2022-08-05T03:01:59.100Z,99.90
2022-08-05T03:05:01.924Z,99.90
2022-08-05T03:08:08.825Z,99.90
2022-08-05T03:11:57.463Z,99.90
2022-08-05T03:14:46.030Z,99.90
2022-08-05T03:17:48.118Z,99.90
2022-08-05T03:20:56.194Z,99.90
2022-08-05T03:24:00.600Z,99.90
2022-08-05T03:27:06.642Z,99.90
2022-08-05T03:30:10.136Z,99.90
2022-08-05T03:33:12.710Z,99.90
2022-08-05T03:36:14.505Z,99.90
2022-08-05T03:39:20.318Z,99.90
2022-08-05T03:42:32.797Z,99.90
2022-08-05T03:45:57.450Z,99.90
2022-08-05T03:49:01.864Z,99.90
2022-08-05T03:52:48.882Z,99.90
2022-08-05T03:56:01.952Z,99.90
2022-08-05T03:59:02.880Z,99.90
2022-08-05T04:02:05.748Z,99.90
2022-08-05T04:05:10.265Z,99.90
2022-08-05T04:08:14.628Z,99.90
2022-08-05T04:11:25.066Z,99.90
2022-08-05T04:14:47.611Z,99.90
2022-08-05T04:17:56.647Z,99.90
2022-08-05T04:21:04.006Z,99.90
2022-08-05T04:24:09.054Z,99.90
2022-08-05T04:27:33.070Z,99.90
2022-08-05T04:30:42.953Z,99.90
2022-08-05T04:34:17.165Z,99.90
2022-08-05T04:37:06.806Z,99.90
2022-08-05T04:40:09.478Z,99.90
2022-08-05T04:43:11.383Z,99.90
2022-08-05T04:46:28.242Z,99.90
2022-08-05T04:49:39.196Z,99.90
2022-08-05T04:52:52.393Z,99.90
2022-08-05T04:56:14.702Z,99.90
2022-08-05T04:59:24.064Z,99.90
2022-08-05T05:02:41.791Z,99.90
2022-08-05T05:06:39.325Z,99.90
2022-08-05T05:09:07.197Z,99.90
2022-08-05T05:12:09.260Z,99.90
2022-08-05T05:15:13.513Z,99.90
2022-08-05T05:18:28.672Z,99.90
2022-08-05T05:21:35.087Z,99.90
2022-08-05T05:24:57.731Z,99.90
2022-08-05T05:27:59.276Z,99.90
2022-08-05T05:31:01.203Z,99.90
2022-08-05T05:34:07.609Z,99.90
2022-08-05T05:37:09.979Z,99.90
2022-08-05T05:40:15.280Z,99.90
2022-08-05T05:43:22.091Z,99.90
2022-08-05T05:46:39.342Z,99.90
2022-08-05T05:49:42.136Z,99.90
2022-08-05T05:52:46.597Z,99.90
2022-08-05T05:55:52.264Z,99.90
2022-08-05T05:59:07.711Z,99.90
2022-08-05T06:02:09.902Z,97.00
2022-08-05T06:05:16.880Z,92.10
2022-08-05T06:08:31.473Z,88.60
2022-08-05T06:11:35.041Z,81.00
2022-08-05T06:14:41.474Z,76.20
2022-08-05T06:17:52.726Z,71.00
2022-08-05T06:20:55.624Z,67.00
2022-08-05T06:23:57.514Z,66.10
2022-08-05T06:27:04.003Z,63.40
2022-08-05T06:30:17.863Z,58.80
2022-08-05T06:33:33.395Z,57.50
2022-08-05T06:36:57.898Z,57.00
2022-08-05T06:40:00.747Z,51.00
2022-08-05T06:43:04.501Z,51.40
2022-08-05T06:46:07.216Z,52.00
2022-08-05T06:49:09.384Z,49.50
2022-08-05T06:52:37.844Z,54.10
2022-08-05T06:55:36.312Z,52.10
2022-08-05T06:58:38.763Z,47.10
2022-08-05T07:01:42.499Z,45.60
2022-08-05T07:04:44.506Z,45.20
2022-08-05T07:07:48.090Z,42.50
2022-08-05T07:10:52.535Z,43.00
2022-08-05T07:13:59.476Z,44.10
2022-08-05T07:17:59.534Z,44.50
2022-08-05T07:20:33.867Z,43.80
2022-08-05T07:23:49.108Z,41.90
2022-08-05T07:26:52.159Z,41.10
2022-08-05T07:30:25.347Z,39.70
2022-08-05T07:33:17.232Z,41.00
2022-08-05T07:36:21.455Z,41.30
2022-08-05T07:39:24.704Z,42.50
2022-08-05T07:42:45.591Z,41.00
2022-08-05T07:45:57.575Z,39.10
2022-08-05T07:49:05.793Z,39.80
2022-08-05T07:52:08.294Z,38.30
2022-08-05T07:55:44.014Z,38.30
2022-08-05T07:58:57.733Z,41.60
2022-08-05T08:01:57.446Z,38.80
2022-08-05T08:05:00.673Z,41.00
2022-08-05T08:08:02.599Z,39.50
2022-08-05T08:11:04.501Z,37.70
2022-08-05T08:14:10.978Z,37.80
2022-08-05T08:17:21.496Z,34.90
2022-08-05T08:21:00.187Z,36.70
2022-08-05T08:24:02.764Z,36.50
2022-08-05T08:27:07.327Z,38.10
2022-08-05T08:30:29.382Z,33.20
2022-08-05T08:33:37.557Z,37.20
2022-08-05T08:36:49.902Z,36.80
2022-08-05T08:39:54.543Z,35.50
2022-08-05T08:42:56.911Z,36.90
2022-08-05T08:46:19.130Z,36.70
2022-08-05T08:50:23.197Z,36.60
2022-08-05T08:52:56.620Z,36.30
2022-08-05T08:56:05.280Z,36.10
2022-08-05T08:59:14.668Z,35.80
2022-08-05T09:02:22.125Z,36.10
2022-08-05T09:05:38.308Z,35.30
2022-08-05T09:08:50.437Z,36.20
2022-08-05T09:11:55.346Z,34.20
2022-08-05T09:15:06.819Z,34.90
2022-08-05T09:18:09.913Z,33.70
2022-08-05T09:21:20.695Z,34.10
2022-08-05T09:24:37.326Z,34.30
2022-08-05T09:28:04.024Z,35.00
2022-08-05T09:31:22.277Z,34.00
2022-08-05T09:34:55.479Z,34.50
2022-08-05T09:38:12.273Z,34.80
2022-08-05T09:41:19.778Z,35.10
2022-08-05T09:44:43.655Z,36.50
2022-08-05T09:47:56.255Z,36.40
2022-08-05T09:51:04.504Z,37.90
2022-08-05T09:54:29.563Z,37.90
2022-08-05T09:57:35.262Z,37.60
2022-08-05T10:00:58.762Z,35.20
2022-08-05T10:04:10.498Z,35.30
2022-08-05T10:07:21.028Z,36.80
2022-08-05T10:10:44.797Z,36.00
2022-08-05T10:13:48.331Z,37.70
2022-08-05T10:16:53.438Z,36.40
2022-08-05T10:26:32.565Z,34.60
2022-08-05T10:30:41.984Z,35.00
2022-08-05T10:33:17.527Z,35.90
2022-08-05T10:36:23.633Z,34.40
2022-08-05T10:39:59.525Z,35.60
2022-08-05T10:43:11.219Z,33.50
2022-08-05T10:46:17.500Z,34.00
2022-08-05T10:49:27.132Z,32.80
2022-08-05T10:52:52.996Z,33.10
2022-08-05T10:56:21.052Z,31.80
2022-08-05T11:00:03.677Z,33.50
2022-08-05T11:03:23.327Z,31.40
2022-08-05T11:06:30.915Z,32.90
2022-08-05T11:09:47.530Z,32.50
2022-08-05T11:12:50.874Z,36.10
2022-08-05T11:16:33.944Z,32.80
2022-08-05T11:23:49.892Z,34.50
2022-08-05T11:26:49.753Z,36.80
2022-08-05T11:29:59.874Z,38.20
2022-08-05T11:33:44.074Z,36.70
2022-08-05T11:36:52.969Z,35.30
2022-08-05T11:40:02.688Z,34.80
2022-08-05T11:43:05.903Z,33.60
2022-08-05T11:46:15.465Z,32.90
2022-08-05T11:49:33.991Z,32.80
2022-08-05T11:52:36.114Z,32.10
2022-08-05T11:55:38.047Z,32.90
2022-08-05T11:58:40.913Z,34.40
2022-08-05T12:02:06.984Z,36.90
2022-08-05T12:05:36.087Z,36.30
2022-08-05T12:08:51.262Z,35.40
2022-08-05T12:11:53.515Z,34.90
2022-08-05T12:14:56.450Z,34.70
2022-08-05T12:18:02.950Z,33.30
2022-08-05T12:21:32.756Z,35.00
2022-08-05T12:24:49.716Z,35.90
2022-08-05T12:27:53.183Z,34.90
2022-08-05T12:30:57.355Z,32.50
2022-08-05T12:33:59.766Z,34.80
2022-08-05T12:37:10.673Z,34.80
2022-08-05T12:40:26.310Z,36.70
2022-08-05T12:43:32.164Z,33.60
2022-08-05T12:46:37.320Z,32.00
2022-08-05T12:50:03.697Z,32.60
2022-08-05T12:53:06.303Z,34.30
2022-08-05T12:56:34.603Z,34.30
2022-08-05T13:01:58.637Z,34.50
2022-08-05T13:03:15.531Z,33.10
2022-08-05T13:06:18.159Z,34.60
2022-08-05T13:09:27.872Z,33.60
2022-08-05T13:12:30.690Z,34.20
2022-08-05T13:15:41.106Z,32.30
2022-08-05T13:18:58.469Z,33.20
2022-08-05T13:22:00.889Z,32.80
2022-08-05T13:25:19.003Z,32.50
2022-08-05T13:28:23.780Z,30.20
2022-08-05T13:32:02.881Z,29.80
2022-08-05T13:34:48.041Z,31.30
2022-08-05T13:37:55.576Z,30.30
2022-08-05T13:40:58.237Z,30.60
2022-08-05T13:44:00.459Z,31.50
2022-08-05T13:47:08.634Z,31.70
2022-08-05T13:50:16.272Z,32.40
2022-08-05T13:53:18.713Z,29.40
2022-08-05T13:56:20.695Z,29.80
2022-08-05T13:59:25.337Z,28.80
2022-08-05T14:02:29.684Z,29.80
2022-08-05T14:06:04.735Z,30.20
2022-08-05T14:08:53.728Z,28.60
2022-08-05T14:12:04.178Z,30.20
2022-08-05T14:16:08.908Z,29.80
2022-08-05T14:18:40.201Z,32.50
2022-08-05T14:22:09.901Z,31.20
2022-08-05T14:25:06.143Z,31.70
2022-08-05T14:28:08.420Z,31.50
2022-08-05T14:32:02.979Z,29.90
2022-08-05T14:34:39.736Z,31.00
2022-08-05T14:37:45.298Z,30.90
2022-08-05T14:40:50.974Z,30.10
2022-08-05T14:44:02.134Z,30.90
2022-08-05T14:47:07.650Z,29.80
2022-08-05T14:50:17.524Z,29.90
2022-08-05T14:53:20.543Z,33.50
2022-08-05T14:56:23.828Z,32.10
2022-08-05T14:59:29.777Z,32.10
2022-08-05T15:02:37.515Z,33.80
2022-08-05T15:06:08.430Z,32.20
2022-08-05T15:09:04.388Z,33.00
2022-08-05T15:12:06.628Z,32.40
2022-08-05T15:15:15.574Z,33.00
2022-08-05T15:18:17.733Z,34.70
2022-08-05T15:21:21.016Z,33.70
2022-08-05T15:24:25.366Z,33.30
2022-08-05T15:27:32.188Z,32.20
2022-08-05T15:30:37.818Z,32.60
2022-08-05T15:34:06.195Z,31.70
2022-08-05T15:37:06.100Z,32.70
2022-08-05T15:41:02.824Z,32.80
2022-08-05T15:43:45.347Z,31.90
2022-08-05T15:46:48.122Z,31.50
2022-08-05T15:49:59.062Z,29.60
2022-08-05T15:53:04.078Z,32.20
2022-08-05T15:56:14.108Z,31.40
2022-08-05T15:59:21.729Z,31.30
2022-08-05T16:02:25.454Z,31.40
2022-08-05T16:05:28.620Z,33.30
2022-08-05T16:08:31.023Z,31.70
2022-08-05T16:11:42.493Z,30.50
2022-08-05T16:14:45.181Z,30.60
2022-08-05T16:17:57.969Z,30.40
2022-08-05T16:21:03.991Z,30.00
2022-08-05T16:24:12.588Z,32.20
2022-08-05T16:27:15.898Z,32.00
2022-08-05T16:30:26.356Z,32.80
2022-08-05T16:33:30.988Z,33.40
2022-08-05T16:36:43.433Z,35.70
2022-08-05T16:40:05.960Z,37.50
2022-08-05T16:43:07.199Z,35.60
2022-08-05T16:46:12.937Z,35.00
2022-08-05T16:49:26.614Z,38.50
2022-08-05T16:52:33.513Z,37.50
2022-08-05T16:55:47.148Z,39.50
2022-08-05T16:58:49.341Z,43.30
2022-08-05T17:01:54.623Z,41.70
2022-08-05T17:04:57.977Z,45.30
2022-08-05T17:07:59.751Z,45.80
2022-08-05T17:11:02.595Z,46.50
2022-08-05T17:14:06.130Z,47.50
2022-08-05T17:17:14.337Z,48.60
2022-08-05T17:20:17.222Z,50.10
2022-08-05T17:24:03.373Z,51.10
2022-08-05T17:26:41.178Z,51.20
2022-08-05T17:29:44.373Z,51.20
2022-08-05T17:32:48.560Z,52.30
2022-08-05T17:36:08.023Z,54.40
2022-08-05T17:39:24.070Z,55.20
2022-08-05T17:42:32.324Z,57.80
2022-08-05T17:45:38.785Z,56.50
2022-08-05T17:48:43.239Z,60.10
2022-08-05T17:51:46.799Z,64.00
2022-08-05T17:54:52.542Z,65.20
2022-08-05T17:57:55.541Z,65.40
2022-08-05T18:00:57.433Z,67.30
2022-08-05T18:04:03.837Z,67.20
2022-08-05T18:07:06.786Z,69.20
2022-08-05T18:10:20.870Z,69.40
2022-08-05T18:13:23.488Z,69.50
2022-08-05T18:16:27.769Z,72.00
2022-08-05T18:19:29.677Z,72.90
2022-08-05T18:22:46.100Z,74.50
2022-08-05T18:25:57.594Z,74.70
2022-08-05T18:29:01.449Z,74.90
2022-08-05T18:32:03.525Z,76.70
2022-08-05T18:35:05.775Z,77.60
2022-08-05T18:38:08.193Z,80.60
2022-08-05T18:41:55.403Z,82.80
2022-08-05T18:44:34.672Z,82.30
2022-08-05T18:47:37.279Z,80.70
2022-08-05T18:50:42.126Z,83.30
2022-08-05T18:53:50.444Z,85.90
2022-08-05T18:56:52.539Z,89.40
2022-08-05T19:00:01.717Z,90.80
2022-08-05T19:03:05.397Z,92.20
2022-08-05T19:06:18.930Z,92.30
2022-08-05T19:09:23.932Z,92.90
2022-08-05T19:12:27.829Z,93.20
2022-08-05T19:15:59.165Z,95.10
2022-08-05T19:18:52.620Z,95.90
2022-08-05T19:21:54.896Z,96.00
2022-08-05T19:24:57.001Z,97.30
2022-08-05T19:27:59.930Z,99.40
2022-08-05T19:31:05.844Z,99.90
2022-08-05T19:34:08.502Z,99.90
2022-08-05T19:37:10.994Z,99.90
2022-08-05T19:40:15.049Z,99.90
2022-08-05T19:43:24.439Z,99.90
2022-08-05T19:46:39.739Z,99.90
2022-08-05T19:49:41.955Z,99.90
2022-08-05T19:52:47.571Z,99.90
2022-08-05T19:56:14.802Z,99.90
2022-08-05T19:59:55.084Z,99.90
2022-08-05T20:02:34.793Z,99.90
2022-08-05T20:05:49.759Z,99.90
2022-08-05T20:08:53.322Z,99.90
2022-08-05T20:11:56.018Z,99.90
2022-08-05T20:14:58.325Z,99.90
2022-08-05T20:18:02.333Z,99.90
2022-08-05T20:21:07.023Z,99.90
2022-08-05T20:24:11.436Z,99.90
2022-08-05T20:27:13.824Z,99.90
2022-08-05T20:30:18.204Z,99.90
2022-08-05T20:33:21.877Z,99.90
2022-08-05T20:36:24.547Z,99.90
2022-08-05T20:39:36.426Z,99.90
2022-08-05T20:42:38.935Z,99.90
2022-08-05T20:45:56.387Z,99.90
2022-08-05T20:48:59.410Z,99.90
2022-08-05T20:52:01.348Z,99.90
2022-08-05T20:56:07.484Z,99.90
2022-08-05T20:58:25.383Z,99.90
2022-08-05T21:01:38.288Z,99.90
2022-08-05T21:04:40.817Z,99.90
2022-08-05T21:07:50.801Z,99.90
2022-08-05T21:10:54.409Z,99.90
2022-08-05T21:14:00.624Z,99.90
2022-08-05T21:17:05.087Z,99.90
2022-08-05T21:20:10.078Z,99.90
2022-08-05T21:23:12.204Z,99.90
2022-08-05T21:26:16.042Z,99.90
2022-08-05T21:29:17.940Z,99.90
2022-08-05T21:32:20.349Z,99.90
2022-08-05T21:35:30.362Z,99.90
2022-08-05T21:41:52.578Z,99.90
2022-08-05T21:44:54.932Z,99.90
2022-08-05T21:47:58.651Z,99.90
2022-08-05T21:51:00.542Z,99.90
2022-08-05T21:54:04.049Z,99.90
2022-08-05T21:57:29.526Z,99.90
2022-08-05T22:00:28.946Z,99.90
2022-08-05T22:03:52.701Z,99.90
2022-08-05T22:06:53.089Z,99.90
2022-08-05T22:09:54.982Z,99.90
2022-08-05T22:13:09.218Z,99.90
2022-08-05T22:16:41.093Z,99.90
2022-08-05T22:20:02.125Z,99.90
2022-08-05T22:23:15.877Z,99.90
2022-08-05T22:26:19.229Z,99.90
2022-08-05T22:29:26.665Z,99.90
2022-08-05T22:32:28.832Z,99.90
2022-08-05T22:35:48.125Z,99.90
2022-08-05T22:38:52.129Z,99.90
2022-08-05T22:42:10.874Z,99.90
2022-08-05T22:45:13.859Z,99.90
2022-08-05T22:48:16.169Z,99.90
2022-08-05T22:54:48.821Z,99.90
2022-08-05T22:57:52.319Z,99.90
2022-08-05T23:00:54.185Z,99.90
2022-08-05T23:03:59.746Z,99.90
2022-08-05T23:07:02.234Z,99.90
2022-08-05T23:10:04.985Z,99.90
2022-08-05T23:13:09.690Z,99.90
2022-08-05T23:16:12.036Z,99.90
2022-08-05T23:19:23.710Z,99.90
2022-08-05T23:22:28.609Z,99.90
2022-08-05T23:25:54.635Z,99.90
2022-08-05T23:28:52.530Z,99.90
2022-08-05T23:31:55.978Z,99.90
2022-08-05T23:34:59.247Z,99.90
2022-08-05T23:38:01.108Z,99.90
2022-08-05T23:41:03.015Z,99.90
2022-08-05T23:44:08.857Z,99.90
2022-08-05T23:47:15.106Z,99.90
2022-08-05T23:50:20.279Z,99.90
2022-08-05T23:53:23.215Z,99.90
2022-08-05T23:56:30.208Z,99.90
